Limpio, con nubes cirrus
Lluvia ligera, tormentas probables
Lluvia ligera, tormentas probables
Lluvia ligera, tormentas probables
Limpio, con algunas nubes bajas
Limpio, con algunas nubes bajas
Limpio, con algunas nubes bajas
Limpio, con algunas nubes bajas
Variable con algunas nubes de tormenta posibles
(°C)
22°
22°
21°
21°
20°
20°
19°
19°
18°
18°
16°
16°
15°
15°
15°
15°
14°
14°
(°C)
20°
19°
18°
17°
16°
15°
14°
13°
13°
SE
SSE
SSE
SSE
SE
SE
SE
SE
SE
(km/h)
17-35
15-31
14-28
13-23
11-23
11-23
10-20
9-18
9-16
(mm)
0
0.2
0.3
0.5
0
0
0
0
0
(%)
18
41
58
48
49
26
19
19
19

Elevación del sol

/ 31°
sun-icon
UV 4
04:10
21:42
Gibosa menguante (212°)
23:58
05:58

METAR a 55.31°N 61.5°E (USCC)

Hora Condiciones Temperatura/
Punto de condensación
Viento Visibilidad Tiempo Nubes Presión Cambiar Bruto
VFR 23°C / 13°C 150º 14kt 9700m - Scattered Clouds 4000ft 991 Temporary: 14010G18MPS Visibility 2100. Light Thunderstorm Rain . RMK QFE723 USCC 241200Z 15007MPS 9999 SCT040CB 23/13 Q0991 R09/000060 TEMPO 14010G18MPS 2100 -TSRA RMK QFE723
VFR 22°C / 11°C 150º 12kt 9700m - Scattered Clouds 4000ft 992 Temporary: 14010G18MPS RMK QFE723 USCC 241130Z 15006MPS 9999 SCT040CB 22/11 Q0992 R09/000060 TEMPO 14010G18MPS RMK QFE723
VFR 23°C / 12°C 150º 16kt 9700m - Scattered Clouds 4000ft 992 Temporary: 14010G18MPS RMK QFE723 USCC 241100Z 15008MPS 9999 SCT040CB 23/12 Q0992 R09/000060 TEMPO 14010G18MPS RMK QFE723
VFR 24°C / 13°C 130º 16kt 9700m - Scattered Clouds 4000ft 991 Temporary: 14010G18MPS RMK QFE723 USCC 241030Z 13008MPS 9999 SCT040CB 24/13 Q0991 R09/000060 TEMPO 14010G18MPS RMK QFE723
VFR 24°C / 13°C 140º 16kt 9700m - Scattered Clouds 4000ft 991 No Significant change USCC 241000Z 14008MPS 9999 SCT040CB 24/13 Q0991 R09/000060 NOSIG RMK QFE723
VFR 23°C / 13°C 120º 12kt 9700m - Scattered Clouds 4000ft 991 No Significant change USCC 240930Z 12006MPS 9999 SCT040CB 23/13 Q0991 R09/000060 NOSIG RMK QFE723
VFR 23°C / 13°C 110º 14kt 9700m - Scattered Clouds 4000ft 992 No Significant change USCC 240900Z 11007MPS 9999 SCT040CB 23/13 Q0992 R09/000060 NOSIG RMK QFE723
VFR 23°C / 13°C 130º 14kt 9700m - Scattered Clouds 4000ft 992 No Significant change USCC 240830Z 13007MPS 9999 SCT040CB 23/13 Q0992 R09/000060 NOSIG RMK QFE724
VFR 23°C / 13°C 140º 14kt 9700m - Scattered Clouds 3300ft 992 No Significant change USCC 240800Z 14007MPS 9999 SCT033CB 23/13 Q0992 R09/000060 NOSIG RMK QFE724
VFR 23°C / 14°C 130º 16kt 9700m - Scattered Clouds 3300ft 992 No Significant change USCC 240730Z 13008MPS 9999 SCT033CB 23/14 Q0992 R09/000060 NOSIG RMK QFE724
VFR 22°C / 13°C 140º 14kt 9700m - Scattered Clouds 3300ft 992 No Significant change USCC 240700Z 14007MPS 9999 SCT033CB 22/13 Q0992 R09/000060 NOSIG RMK QFE724
VFR 22°C / 15°C 140º 12kt Gust 21kt 9700m - Scattered Clouds 3300ft 992 No Significant change USCC 240630Z 14006G11MPS 9999 SCT033CB 22/15 Q0992 R09/000060 NOSIG RMK QFE724
VFR 21°C / 16°C 110º 10kt 9700m - Scattered Clouds 3000ft 992 No Significant change USCC 240600Z 11005MPS 9999 SCT030 21/16 Q0992 R09/000060 NOSIG RMK QFE724
MVFR 21°C / 16°C 120º 10kt 9700m - Broken Clouds 2000ft 992 No Significant change USCC 240530Z 12005MPS 9999 BKN020 21/16 Q0992 R09/000060 NOSIG RMK QFE724
MVFR 19°C / 16°C 90º 10kt 9700m - Broken Clouds 1300ft 992 Temporary: Visibility 3900. Mist . Broken Clouds 200ft. RMK QFE724 USCC 240500Z 09005MPS 9999 BKN013 19/16 Q0992 R09/000060 TEMPO 3900 BR BKN002 RMK QFE724
MVFR 19°C / 16°C 110º 8kt 9700m - Broken Clouds 1300ft 992 Temporary: Visibility 3900. Mist . Broken Clouds 200ft. RMK QFE724 USCC 240430Z 11004MPS 9999 BKN013 19/16 Q0992 R09/000060 TEMPO 3900 BR BKN002 RMK QFE724
IFR 18°C / 16°C 110º 6kt 9700m - Broken Clouds 900ft 993 Temporary: Visibility 3900. Mist . Broken Clouds 200ft. RMK QFE724 USCC 240400Z 11003MPS 9999 BKN009 18/16 Q0993 R09/000060 TEMPO 3900 BR BKN002 RMK QFE724
IFR 17°C / 17°C 140º 6kt 6000m - Broken Clouds 800ft 993 Temporary: Visibility 3900. Mist . Broken Clouds 200ft. RMK QFE724 USCC 240330Z 14003MPS 6000 BKN008 17/17 Q0993 R09/000060 TEMPO 3900 BR BKN002 RMK QFE724
IFR 17°C / 16°C 110º 6kt 6000m - Broken Clouds 800ft 993 Temporary: Visibility 3900. Mist . Broken Clouds 200ft. RMK QFE724 USCC 240300Z 11003MPS 6000 BKN008 17/16 Q0993 R09/000060 TEMPO 3900 BR BKN002 RMK QFE724
LIFR 16°C / 15°C 130º 6kt 5000m Mist Overcast 300ft 993 Temporary: Visibility 3900. Mist . Broken Clouds 200ft. RMK QBB090 QFE724 USCC 240230Z 13003MPS 5000 BR OVC003 16/15 Q0993 R09/000060 TEMPO 3900 BR BKN002 RMK QBB090 QFE724
LIFR 15°C / 15°C 130º 6kt 5000m Mist Overcast 300ft 993 Temporary: Visibility 3900. Mist . Broken Clouds 200ft. RMK QBB100 QFE724 . Runway 09: Wet or puddles, 26-50% contamination with <1mm, friction coefficient 0.55. USCC 240200Z 13003MPS 5000 BR OVC003 15/15 Q0993 R09/250055 TEMPO 3900 BR BKN002 RMK QBB100 QFE724
LIFR 15°C / 15°C 120º 8kt 3300m Mist Overcast 200ft 993 Temporary: Visibility 0500. Fog . VV001 RMK QBB070 QFE724 . Runway 09: Wet or puddles, 26-50% contamination with <1mm, friction coefficient 0.55. USCC 240130Z 12004MPS 3300 BR OVC002 15/15 Q0993 R09/250055 TEMPO 0500 FG VV001 RMK QBB070 QFE724
LIFR 15°C / 15°C 120º 8kt 1000m. Runway 09: Visual range is 1300m and increasing. Fog Obscured Sky 993 Temporary: Visibility 0500. Fog . VV001 RMK QBB060 QFE724 . Runway 09: Wet or puddles, 26-50% contamination with <1mm, friction coefficient 0.55. USCC 240113Z 12004MPS 1000 0750E R09/1300U FG VV002 15/15 Q0993 R09/250055 TEMPO 0500 FG VV001 RMK QBB060 QFE724
LIFR 15°C / 15°C 120º 8kt 640m. Runway 09: Visual range is 750m. Fog Obscured Sky 993 Temporary: Visibility 0500. Fog . VV001 RMK QBB060 QFE724 . Runway 09: Wet or puddles, 26-50% contamination with <1mm, friction coefficient 0.55. USCC 240100Z 12004MPS 0650 0600E R09/0750N FG VV002 15/15 Q0993 R09/250055 TEMPO 0500 FG VV001 RMK QBB060 QFE724

VFR

23°C / 13°C

[Más]
Viento 150º 14kt
Visibilidad 9700m
Tiempo -
Nubes Scattered Clouds 4000ft
Presión 991
Cambiar Temporary: 14010G18MPS Visibility 2100. Light Thunderstorm Rain . RMK QFE723
Bruto USCC 241200Z 15007MPS 9999 SCT040CB 23/13 Q0991 R09/000060 TEMPO 14010G18MPS 2100 -TSRA RMK QFE723

VFR

22°C / 11°C

[Más]
Viento 150º 12kt
Visibilidad 9700m
Tiempo -
Nubes Scattered Clouds 4000ft
Presión 992
Cambiar Temporary: 14010G18MPS RMK QFE723
Bruto USCC 241130Z 15006MPS 9999 SCT040CB 22/11 Q0992 R09/000060 TEMPO 14010G18MPS RMK QFE723

VFR

23°C / 12°C

[Más]
Viento 150º 16kt
Visibilidad 9700m
Tiempo -
Nubes Scattered Clouds 4000ft
Presión 992
Cambiar Temporary: 14010G18MPS RMK QFE723
Bruto USCC 241100Z 15008MPS 9999 SCT040CB 23/12 Q0992 R09/000060 TEMPO 14010G18MPS RMK QFE723

VFR

24°C / 13°C

[Más]
Viento 130º 16kt
Visibilidad 9700m
Tiempo -
Nubes Scattered Clouds 4000ft
Presión 991
Cambiar Temporary: 14010G18MPS RMK QFE723
Bruto USCC 241030Z 13008MPS 9999 SCT040CB 24/13 Q0991 R09/000060 TEMPO 14010G18MPS RMK QFE723

VFR

24°C / 13°C

[Más]
Viento 140º 16kt
Visibilidad 9700m
Tiempo -
Nubes Scattered Clouds 4000ft
Presión 991
Cambiar No Significant change
Bruto USCC 241000Z 14008MPS 9999 SCT040CB 24/13 Q0991 R09/000060 NOSIG RMK QFE723

VFR

23°C / 13°C

[Más]
Viento 120º 12kt
Visibilidad 9700m
Tiempo -
Nubes Scattered Clouds 4000ft
Presión 991
Cambiar No Significant change
Bruto USCC 240930Z 12006MPS 9999 SCT040CB 23/13 Q0991 R09/000060 NOSIG RMK QFE723

VFR

23°C / 13°C

[Más]
Viento 110º 14kt
Visibilidad 9700m
Tiempo -
Nubes Scattered Clouds 4000ft
Presión 992
Cambiar No Significant change
Bruto USCC 240900Z 11007MPS 9999 SCT040CB 23/13 Q0992 R09/000060 NOSIG RMK QFE723

VFR

23°C / 13°C

[Más]
Viento 130º 14kt
Visibilidad 9700m
Tiempo -
Nubes Scattered Clouds 4000ft
Presión 992
Cambiar No Significant change
Bruto USCC 240830Z 13007MPS 9999 SCT040CB 23/13 Q0992 R09/000060 NOSIG RMK QFE724

VFR

23°C / 13°C

[Más]
Viento 140º 14kt
Visibilidad 9700m
Tiempo -
Nubes Scattered Clouds 3300ft
Presión 992
Cambiar No Significant change
Bruto USCC 240800Z 14007MPS 9999 SCT033CB 23/13 Q0992 R09/000060 NOSIG RMK QFE724

VFR

23°C / 14°C

[Más]
Viento 130º 16kt
Visibilidad 9700m
Tiempo -
Nubes Scattered Clouds 3300ft
Presión 992
Cambiar No Significant change
Bruto USCC 240730Z 13008MPS 9999 SCT033CB 23/14 Q0992 R09/000060 NOSIG RMK QFE724

VFR

22°C / 13°C

[Más]
Viento 140º 14kt
Visibilidad 9700m
Tiempo -
Nubes Scattered Clouds 3300ft
Presión 992
Cambiar No Significant change
Bruto USCC 240700Z 14007MPS 9999 SCT033CB 22/13 Q0992 R09/000060 NOSIG RMK QFE724

VFR

22°C / 15°C

[Más]
Viento 140º 12kt Gust 21kt
Visibilidad 9700m
Tiempo -
Nubes Scattered Clouds 3300ft
Presión 992
Cambiar No Significant change
Bruto USCC 240630Z 14006G11MPS 9999 SCT033CB 22/15 Q0992 R09/000060 NOSIG RMK QFE724

VFR

21°C / 16°C

[Más]
Viento 110º 10kt
Visibilidad 9700m
Tiempo -
Nubes Scattered Clouds 3000ft
Presión 992
Cambiar No Significant change
Bruto USCC 240600Z 11005MPS 9999 SCT030 21/16 Q0992 R09/000060 NOSIG RMK QFE724

MVFR

21°C / 16°C

[Más]
Viento 120º 10kt
Visibilidad 9700m
Tiempo -
Nubes Broken Clouds 2000ft
Presión 992
Cambiar No Significant change
Bruto USCC 240530Z 12005MPS 9999 BKN020 21/16 Q0992 R09/000060 NOSIG RMK QFE724

MVFR

19°C / 16°C

[Más]
Viento 90º 10kt
Visibilidad 9700m
Tiempo -
Nubes Broken Clouds 1300ft
Presión 992
Cambiar Temporary: Visibility 3900. Mist . Broken Clouds 200ft. RMK QFE724
Bruto USCC 240500Z 09005MPS 9999 BKN013 19/16 Q0992 R09/000060 TEMPO 3900 BR BKN002 RMK QFE724

MVFR

19°C / 16°C

[Más]
Viento 110º 8kt
Visibilidad 9700m
Tiempo -
Nubes Broken Clouds 1300ft
Presión 992
Cambiar Temporary: Visibility 3900. Mist . Broken Clouds 200ft. RMK QFE724
Bruto USCC 240430Z 11004MPS 9999 BKN013 19/16 Q0992 R09/000060 TEMPO 3900 BR BKN002 RMK QFE724

IFR

18°C / 16°C

[Más]
Viento 110º 6kt
Visibilidad 9700m
Tiempo -
Nubes Broken Clouds 900ft
Presión 993
Cambiar Temporary: Visibility 3900. Mist . Broken Clouds 200ft. RMK QFE724
Bruto USCC 240400Z 11003MPS 9999 BKN009 18/16 Q0993 R09/000060 TEMPO 3900 BR BKN002 RMK QFE724

IFR

17°C / 17°C

[Más]
Viento 140º 6kt
Visibilidad 6000m
Tiempo -
Nubes Broken Clouds 800ft
Presión 993
Cambiar Temporary: Visibility 3900. Mist . Broken Clouds 200ft. RMK QFE724
Bruto USCC 240330Z 14003MPS 6000 BKN008 17/17 Q0993 R09/000060 TEMPO 3900 BR BKN002 RMK QFE724

IFR

17°C / 16°C

[Más]
Viento 110º 6kt
Visibilidad 6000m
Tiempo -
Nubes Broken Clouds 800ft
Presión 993
Cambiar Temporary: Visibility 3900. Mist . Broken Clouds 200ft. RMK QFE724
Bruto USCC 240300Z 11003MPS 6000 BKN008 17/16 Q0993 R09/000060 TEMPO 3900 BR BKN002 RMK QFE724

LIFR

16°C / 15°C

[Más]
Viento 130º 6kt
Visibilidad 5000m
Tiempo Mist
Nubes Overcast 300ft
Presión 993
Cambiar Temporary: Visibility 3900. Mist . Broken Clouds 200ft. RMK QBB090 QFE724
Bruto USCC 240230Z 13003MPS 5000 BR OVC003 16/15 Q0993 R09/000060 TEMPO 3900 BR BKN002 RMK QBB090 QFE724

LIFR

15°C / 15°C

[Más]
Viento 130º 6kt
Visibilidad 5000m
Tiempo Mist
Nubes Overcast 300ft
Presión 993
Cambiar Temporary: Visibility 3900. Mist . Broken Clouds 200ft. RMK QBB100 QFE724 . Runway 09: Wet or puddles, 26-50% contamination with <1mm, friction coefficient 0.55.
Bruto USCC 240200Z 13003MPS 5000 BR OVC003 15/15 Q0993 R09/250055 TEMPO 3900 BR BKN002 RMK QBB100 QFE724

LIFR

15°C / 15°C

[Más]
Viento 120º 8kt
Visibilidad 3300m
Tiempo Mist
Nubes Overcast 200ft
Presión 993
Cambiar Temporary: Visibility 0500. Fog . VV001 RMK QBB070 QFE724 . Runway 09: Wet or puddles, 26-50% contamination with <1mm, friction coefficient 0.55.
Bruto USCC 240130Z 12004MPS 3300 BR OVC002 15/15 Q0993 R09/250055 TEMPO 0500 FG VV001 RMK QBB070 QFE724

LIFR

15°C / 15°C

[Más]
Viento 120º 8kt
Visibilidad 1000m. Runway 09: Visual range is 1300m and increasing.
Tiempo Fog
Nubes Obscured Sky
Presión 993
Cambiar Temporary: Visibility 0500. Fog . VV001 RMK QBB060 QFE724 . Runway 09: Wet or puddles, 26-50% contamination with <1mm, friction coefficient 0.55.
Bruto USCC 240113Z 12004MPS 1000 0750E R09/1300U FG VV002 15/15 Q0993 R09/250055 TEMPO 0500 FG VV001 RMK QBB060 QFE724

LIFR

15°C / 15°C

[Más]
Viento 120º 8kt
Visibilidad 640m. Runway 09: Visual range is 750m.
Tiempo Fog
Nubes Obscured Sky
Presión 993
Cambiar Temporary: Visibility 0500. Fog . VV001 RMK QBB060 QFE724 . Runway 09: Wet or puddles, 26-50% contamination with <1mm, friction coefficient 0.55.
Bruto USCC 240100Z 12004MPS 0650 0600E R09/0750N FG VV002 15/15 Q0993 R09/250055 TEMPO 0500 FG VV001 RMK QBB060 QFE724

TAF a 55.31°N 61.5°E (USCC)

From till


From till Wind 180º 6kt. Gust 19kt. Visibility 9700m. Scattered Clouds 2000ft.
Temporarly from till Wind 140º 16kt. Gust 35kt. Light Thunderstorm Rain Light Thunderstorm Hail . Broken Clouds 1600ft.
Becoming from till
Temporarly from till Wind 210º 6kt. Gust 16kt.

Bruto: TAF USCC 241054Z 2412/2512 18003G10MPS 9999 SCT020CB TEMPO 2412/2418 14008G18MPS -TSRAGR BKN016CB BECMG 2421/2423 27005G10MPS TEMPO 2423/2506 21003G08MPS

Radar para 55.31°N 61.5°E

llovizna
Leve
Moderado
Fuerte
Muy fuerte
Granizo

El marcador del lugar se coloca en 55.31°N 61.5°E. Las cruces naranjas indican rayos. Datos proporcionados por nowcast.de (disponibles en EE.UU., Europa y Australia). La llovizna o una ligera nevada pueden ser invisibles para el radar. La intensidad de la precipitación está codificada por colores, del turquesa al rojo.

Imágenes actuales de satélite y lluvia para 55.31°N 61.5°E

El marcador del lugar se coloca en 55.31°N 61.5°E. [Más]

La imagen de satélite en tiempo real se aprovecha de la combinación de bandas de la luz visible y de la luz infrarroja. Cómo se pueden detectar cambios de temperaturas a través de la banda infrarrojo, la imagen no aparece oscura de noche. No obstante, la niebla y las nubes bajas son apenas visibles en las imágenes de infrarrojo ya que las diferencias de temperaturas entre el suelo y la niebla son muy pequeñas, por eso, son casi invisibles durante la noche. Las imágenes de satélite del Meteosat (Europa) son actualizados en tiempo real cada 5 minutos. Las imágenes del GOES-16/GOES-17 (América del Norte y América del Sur) y Himawari (Asia) son actualizadas cada 10 minutos.

La precipitación se estima a partir del radar y de los satélites. Las estimaciones de la precipitación desde los satélites son menos precisas durante la noche que durante el día.

© 2024 meteoblue, NOAA Satellites GOES-16 and EUMETSAT. Datos de relámpagos proporcionados por nowcast.

Volver al principio
×
Hola,
parece que está usando un bloqueador de anuncios.

La publicidad es esencial para mantener nuestro sitio web gratuito con detalle y precisión únicos.

Por favor, incluya www.meteoblue.com en la lista blanca de su bloqueador de anuncios o considere comprar uno de nuestros productos:

¿Ya hay subscripción?
Entonces, por favor, iniciar sesión.